Oakland County International Airport
KPTK : now visible

Airfield :











YOU CAN JOIN US ON...

 
LOGIN :

Register | Disclaimer

   EN    FR    IT 

 









Legend :    VFR   Marginal VFR   IFR   Intensive IFR   Very Intensive IFR
Visi :
Ceiling :
>= 8 km
>= 3000ft
5 to 8 km
1000 to 3000 ft
1500m to 5 km
500 to 1000 ft
800 to 1500m
200 to 500 ft
< 800m
< 200 ft
Symbols :   Thunderstorms  Fog  Heavy snow  Heavy precipitations  Wind > 20 kt






- Airport Elevation : 980 ft


KPTK - Oakland County International

CURRENT METAR :
  • 202353Z 20003KT 10SM OVC024 04/01 A3020 RMK AO2 SLP234 T00440006 10056 20044 51007

EXPIRED METARs :
  • 202253Z 00000KT 10SM OVC024 04/01 A3019 RMK AO2 SLP233 T00440006
  • 202153Z 23005KT 10SM OVC023 05/01 A3018 RMK AO2 SLP229 T00500006

TAF KPTK
Valid from the 21 at 00:00 until the 22 at 00:00 UTC


202320Z 2100/2124 17005KT P6SM OVC026
FM211100 18011KT P6SM BKN090 OVC150
FM211600 19013G20KT 6SM -SHRA BKN040 OVC060
FM212000 20015G26KT P6SM -SHRA BKN018 OVC040



MET'MAP, your aeronautical weather chart ! - Copyright ORBIFLY December 2007 - Disclaimer

ORBIFLY MET'MAP TEAM :

Programming & Development : Alexandra Zaïnal
Concept & Development : Baudouin d'Aumeries
Co-Development & Prog : Marc-Olivier Méhu
Technical & hardware support : Manuel Goepfert

Contact : metmap@orbifly.com




SOURCES & CREDITS :

   NOAA       Earth
Advisory